Terminal Aerodrome Forecast
Issued by NWS

Home | Current Version | Previous Version | Text Only | Print | Product List | Glossary On
Versions: 1 2 3 4 5 6 7 8 9 10 11 12 13 14 15 16 17 18
000
FTUS41 KILN 280500 RRA
TAFLUK
TAF
KLUK 280540Z 2806/2906 VRB03KT 4SM -RA BR SCT008 OVC014
      TEMPO 2808/2810 OVC008
     FM281000 34005KT P6SM OVC012
     FM281800 35006KT P6SM BKN025
      TEMPO 2819/2823 SCT030=

USA.gov is the U.S. government's official web portal to all federal, state and local government web resources and services.